createdAt,value
2018-10-17T00:00:27.014Z,38.00
2018-10-17T00:02:54.543Z,38.00
2018-10-17T00:05:22.203Z,37.30
2018-10-17T00:07:49.751Z,38.00
2018-10-17T00:10:17.278Z,38.10
2018-10-17T00:12:44.812Z,38.10
2018-10-17T00:15:12.354Z,38.10
2018-10-17T00:17:39.829Z,38.10
2018-10-17T00:20:08.377Z,38.20
2018-10-17T00:22:35.859Z,38.20
2018-10-17T00:25:03.480Z,38.20
2018-10-17T00:27:30.931Z,38.20
2018-10-17T00:29:58.493Z,38.20
2018-10-17T00:32:25.991Z,38.30
2018-10-17T00:34:53.580Z,38.30
2018-10-17T00:37:21.034Z,38.30
2018-10-17T00:39:48.545Z,38.30
2018-10-17T00:42:16.101Z,38.30
2018-10-17T00:44:43.649Z,38.30
2018-10-17T00:47:11.186Z,38.50
2018-10-17T00:49:38.692Z,38.60
2018-10-17T00:52:06.265Z,37.90
2018-10-17T00:54:33.793Z,38.60
2018-10-17T00:57:01.244Z,38.60
2018-10-17T00:59:28.787Z,38.60
2018-10-17T01:01:56.259Z,38.60
2018-10-17T01:04:23.828Z,38.70
2018-10-17T01:06:51.411Z,38.70
2018-10-17T01:09:18.896Z,38.70
2018-10-17T01:11:46.397Z,38.60
2018-10-17T01:14:13.985Z,38.80
2018-10-17T01:16:41.483Z,38.90
2018-10-17T01:19:09.091Z,38.80
2018-10-17T01:21:36.987Z,38.80
2018-10-17T01:24:04.923Z,38.90
2018-10-17T01:26:32.575Z,38.90
2018-10-17T01:29:00.204Z,38.90
2018-10-17T01:31:27.711Z,39.00
2018-10-17T01:33:55.227Z,38.90
2018-10-17T01:36:22.744Z,39.00
2018-10-17T01:38:50.313Z,39.00
2018-10-17T01:41:17.989Z,39.00
2018-10-17T01:43:45.509Z,39.10
2018-10-17T01:46:13.065Z,39.20
2018-10-17T01:48:40.618Z,39.20
2018-10-17T01:51:08.197Z,39.20
2018-10-17T01:53:35.700Z,39.10
2018-10-17T01:56:03.323Z,39.20
2018-10-17T01:58:30.819Z,39.20
2018-10-17T02:00:58.411Z,40.00
2018-10-17T02:03:25.873Z,40.00
2018-10-17T02:05:53.442Z,39.40
2018-10-17T02:08:21.152Z,39.40
2018-10-17T02:13:43.744Z,39.20
2018-10-17T02:16:11.250Z,39.70
2018-10-17T02:18:38.868Z,39.80
2018-10-17T02:21:06.367Z,39.70
2018-10-17T02:23:33.916Z,39.60
2018-10-17T02:26:01.559Z,39.70
2018-10-17T02:28:29.100Z,39.80
2018-10-17T02:30:56.708Z,39.80
2018-10-17T02:33:24.490Z,39.70
2018-10-17T02:35:52.034Z,39.10
2018-10-17T02:38:19.546Z,39.90
2018-10-17T02:40:47.069Z,39.90
2018-10-17T02:43:14.738Z,39.90
2018-10-17T02:45:42.206Z,40.00
2018-10-17T02:48:09.815Z,39.90
2018-10-17T02:50:37.306Z,40.00
2018-10-17T02:53:04.982Z,40.00
2018-10-17T02:55:32.402Z,40.00
2018-10-17T02:57:59.876Z,40.10
2018-10-17T03:00:27.398Z,40.10
2018-10-17T03:02:54.902Z,40.10
2018-10-17T03:05:22.445Z,40.10
2018-10-17T03:07:49.930Z,40.20
2018-10-17T03:10:17.478Z,40.20
2018-10-17T03:12:44.966Z,40.20
2018-10-17T03:15:12.498Z,40.20
2018-10-17T03:17:40.060Z,40.30
2018-10-17T03:20:08.488Z,40.20
2018-10-17T03:22:36.022Z,40.30
2018-10-17T03:25:03.644Z,40.40
2018-10-17T03:27:31.176Z,40.30
2018-10-17T03:29:58.697Z,40.40
2018-10-17T03:32:26.204Z,39.60
2018-10-17T03:34:53.754Z,40.40
2018-10-17T03:37:21.232Z,40.50
2018-10-17T03:39:48.767Z,40.60
2018-10-17T03:42:16.339Z,40.50
2018-10-17T03:44:43.929Z,40.40
2018-10-17T03:47:11.543Z,40.60
2018-10-17T04:22:49.283Z,41.20
2018-10-17T04:25:16.909Z,41.80
2018-10-17T04:27:44.381Z,41.90
2018-10-17T04:30:11.944Z,42.10
2018-10-17T04:32:39.551Z,42.10
2018-10-17T04:35:07.059Z,42.10
2018-10-17T04:37:34.903Z,42.10
2018-10-17T04:40:02.517Z,42.10
2018-10-17T04:42:30.026Z,42.00
2018-10-17T04:44:57.536Z,42.10
2018-10-17T04:47:25.176Z,42.00
2018-10-17T04:49:52.680Z,42.10
2018-10-17T04:52:20.156Z,42.10
2018-10-17T04:54:47.635Z,42.20
2018-10-17T04:57:15.149Z,42.20
2018-10-17T04:59:42.649Z,42.10
2018-10-17T05:02:10.139Z,42.20
2018-10-17T05:04:37.729Z,42.20
2018-10-17T05:07:05.303Z,42.20
2018-10-17T05:09:32.918Z,41.90
2018-10-17T05:12:00.542Z,41.80
2018-10-17T05:14:28.228Z,42.30
2018-10-17T05:16:55.786Z,42.20
2018-10-17T05:19:23.347Z,42.20
2018-10-17T05:21:50.878Z,42.30
2018-10-17T05:24:18.408Z,42.20
2018-10-17T05:26:45.919Z,42.30
2018-10-17T05:29:13.511Z,42.40
2018-10-17T05:31:41.082Z,42.40
2018-10-17T05:34:08.648Z,42.30
2018-10-17T05:36:36.348Z,42.40
2018-10-17T05:39:05.548Z,42.30
2018-10-17T05:41:33.103Z,41.50
2018-10-17T05:44:00.662Z,41.30
2018-10-17T05:46:28.364Z,42.50
2018-10-17T05:48:55.888Z,42.60
2018-10-17T05:51:23.442Z,43.00
2018-10-17T05:53:51.048Z,42.60
2018-10-17T05:56:18.579Z,42.70
2018-10-17T05:58:46.075Z,42.70
2018-10-17T06:01:13.673Z,42.70
2018-10-17T06:03:41.161Z,42.80
2018-10-17T06:06:08.756Z,42.70
2018-10-17T06:08:36.302Z,41.80
2018-10-17T06:11:03.913Z,42.80
2018-10-17T06:13:31.606Z,42.90
2018-10-17T06:15:59.128Z,42.20
2018-10-17T06:18:26.681Z,43.00
2018-10-17T06:20:54.184Z,42.80
2018-10-17T06:23:21.698Z,43.10
2018-10-17T06:25:49.185Z,43.20
2018-10-17T06:28:16.760Z,43.10
2018-10-17T06:30:44.246Z,43.20
2018-10-17T06:33:11.800Z,43.30
2018-10-17T06:35:39.339Z,43.30
2018-10-17T06:38:07.108Z,43.40
2018-10-17T06:40:34.652Z,43.40
2018-10-17T06:43:02.195Z,43.40
2018-10-17T06:45:29.700Z,43.30
2018-10-17T06:47:57.239Z,43.00
2018-10-17T06:50:24.792Z,43.50
2018-10-17T06:52:52.307Z,43.60
2018-10-17T06:55:19.899Z,43.60
2018-10-17T06:57:47.501Z,42.30
2018-10-17T07:00:15.004Z,43.60
2018-10-17T07:02:42.482Z,43.40
2018-10-17T07:05:10.689Z,43.40
2018-10-17T07:07:38.376Z,43.60
2018-10-17T07:10:05.966Z,43.50
2018-10-17T07:12:33.517Z,43.30
2018-10-17T07:15:01.146Z,43.40
2018-10-17T07:17:28.680Z,43.50
2018-10-17T07:19:56.268Z,43.40
2018-10-17T07:22:23.869Z,43.50
2018-10-17T07:24:51.470Z,43.40
2018-10-17T07:27:19.008Z,43.40
2018-10-17T07:29:46.771Z,43.50
2018-10-17T07:32:14.126Z,43.50
2018-10-17T07:34:41.932Z,43.40
2018-10-17T07:37:09.653Z,42.70
2018-10-17T07:39:37.149Z,42.40
2018-10-17T07:42:04.945Z,43.60
2018-10-17T07:44:32.425Z,43.50
2018-10-17T07:47:00.010Z,43.50
2018-10-17T07:49:27.593Z,42.90
2018-10-17T07:51:55.149Z,43.70
2018-10-17T07:54:22.782Z,43.70
2018-10-17T07:56:50.476Z,43.70
2018-10-17T07:59:18.153Z,43.60
2018-10-17T08:01:45.772Z,44.00
2018-10-17T08:04:13.362Z,43.50
2018-10-17T08:06:41.011Z,44.10
2018-10-17T08:09:09.759Z,45.40
2018-10-17T08:11:37.394Z,45.80
2018-10-17T08:14:05.255Z,45.60
2018-10-17T08:16:32.853Z,46.90
2018-10-17T08:19:00.428Z,46.90
2018-10-17T08:21:28.006Z,46.70
2018-10-17T08:23:55.533Z,46.30
2018-10-17T08:26:23.021Z,45.80
2018-10-17T08:28:50.564Z,45.10
2018-10-17T08:31:18.423Z,43.70
2018-10-17T08:33:45.956Z,43.70
2018-10-17T08:36:13.644Z,42.80
2018-10-17T08:38:41.167Z,41.90
2018-10-17T08:41:08.769Z,41.00
2018-10-17T08:43:36.226Z,40.20
2018-10-17T08:46:03.929Z,39.30
2018-10-17T08:48:31.423Z,38.60
2018-10-17T08:50:58.987Z,37.80
2018-10-17T08:53:26.529Z,36.90
2018-10-17T08:55:54.156Z,36.10
2018-10-17T08:58:21.696Z,35.50
2018-10-17T09:00:49.210Z,34.70
2018-10-17T09:03:16.746Z,34.10
2018-10-17T09:05:44.216Z,33.50
2018-10-17T09:08:11.841Z,32.50
2018-10-17T09:10:39.324Z,31.90
2018-10-17T09:13:06.827Z,31.30
2018-10-17T09:15:38.379Z,30.60
2018-10-17T09:18:01.995Z,30.10
2018-10-17T09:20:29.598Z,29.60
2018-10-17T09:22:57.025Z,29.20
2018-10-17T09:25:24.550Z,28.90
2018-10-17T09:27:52.186Z,28.30
2018-10-17T09:30:19.814Z,28.10
2018-10-17T09:32:47.234Z,27.70
2018-10-17T09:35:14.883Z,27.10
2018-10-17T09:37:42.378Z,26.30
2018-10-17T09:40:10.775Z,25.70
2018-10-17T09:42:38.726Z,25.10
2018-10-17T09:45:07.024Z,24.70
2018-10-17T09:47:34.595Z,24.50
2018-10-17T09:50:02.182Z,24.40
2018-10-17T09:52:29.800Z,24.50
2018-10-17T09:54:57.348Z,24.70
2018-10-17T09:57:24.874Z,24.60
2018-10-17T09:59:52.462Z,24.60
2018-10-17T10:02:20.083Z,24.70
2018-10-17T10:04:47.569Z,24.90
2018-10-17T10:07:15.234Z,25.40
2018-10-17T10:09:42.809Z,26.00
2018-10-17T10:12:10.433Z,26.70
2018-10-17T10:14:37.892Z,27.30
2018-10-17T10:17:05.452Z,27.60
2018-10-17T10:19:32.943Z,27.70
2018-10-17T10:22:00.486Z,27.40
2018-10-17T10:24:27.974Z,27.40
2018-10-17T10:26:55.559Z,27.00
2018-10-17T10:29:23.049Z,26.80
2018-10-17T10:31:50.586Z,26.50
2018-10-17T10:34:18.282Z,26.10
2018-10-17T10:36:45.676Z,25.80
2018-10-17T10:39:13.321Z,25.30
2018-10-17T10:41:41.174Z,25.00
2018-10-17T10:44:08.821Z,24.60
2018-10-17T10:46:36.339Z,24.30
2018-10-17T10:49:04.105Z,24.00
2018-10-17T10:51:31.639Z,23.50
2018-10-17T10:53:59.245Z,23.20
2018-10-17T10:56:26.682Z,22.90
2018-10-17T10:58:54.272Z,22.70
2018-10-17T11:01:22.003Z,22.40
2018-10-17T11:03:49.575Z,22.20
2018-10-17T11:06:17.101Z,21.90
2018-10-17T11:08:44.636Z,21.70
2018-10-17T11:11:12.173Z,21.50
2018-10-17T11:13:39.673Z,21.20
2018-10-17T11:16:07.213Z,20.90
2018-10-17T11:18:34.729Z,20.90
2018-10-17T11:21:02.322Z,20.70
2018-10-17T11:23:29.833Z,20.60
2018-10-17T11:25:57.373Z,20.50
2018-10-17T11:28:24.953Z,20.50
2018-10-17T11:30:52.489Z,20.20
2018-10-17T11:33:20.035Z,20.10
2018-10-17T11:35:47.594Z,20.00
2018-10-17T11:38:15.155Z,19.90
2018-10-17T11:40:42.771Z,19.80
2018-10-17T11:43:10.252Z,19.70
2018-10-17T11:45:37.882Z,19.60
2018-10-17T11:48:05.433Z,19.40
2018-10-17T11:50:33.003Z,19.20
2018-10-17T11:53:00.821Z,19.20
2018-10-17T11:55:28.385Z,19.10
2018-10-17T11:57:55.940Z,18.90
2018-10-17T12:00:23.454Z,18.90
2018-10-17T12:02:50.978Z,18.80
2018-10-17T12:05:18.685Z,18.50
2018-10-17T12:07:45.967Z,18.40
2018-10-17T12:10:13.511Z,18.30
2018-10-17T12:12:41.055Z,17.90
2018-10-17T12:15:11.169Z,18.20
2018-10-17T12:17:38.690Z,17.90
2018-10-17T12:20:08.514Z,17.60
2018-10-17T12:22:36.124Z,17.50
2018-10-17T12:25:04.050Z,17.30
2018-10-17T12:27:31.596Z,17.50
2018-10-17T12:29:59.107Z,17.70
2018-10-17T12:32:26.697Z,18.00
2018-10-17T12:34:54.251Z,17.90
2018-10-17T12:37:21.732Z,18.00
2018-10-17T12:39:49.397Z,18.30
2018-10-17T12:42:16.850Z,18.60
2018-10-17T12:44:44.460Z,19.00
2018-10-17T12:47:12.002Z,19.30
2018-10-17T12:49:39.471Z,19.60
2018-10-17T12:52:07.025Z,20.00
2018-10-17T12:54:34.515Z,20.10
2018-10-17T12:57:02.043Z,20.30
2018-10-17T12:59:29.615Z,20.40
2018-10-17T13:01:57.125Z,20.60
2018-10-17T13:04:24.688Z,20.70
2018-10-17T13:06:52.260Z,20.70
2018-10-17T13:09:19.807Z,20.50
2018-10-17T13:11:47.416Z,20.50
2018-10-17T13:14:14.993Z,20.40
2018-10-17T13:16:42.602Z,20.20
2018-10-17T13:19:10.235Z,20.20
2018-10-17T13:21:37.711Z,20.00
2018-10-17T13:24:05.481Z,20.00
2018-10-17T13:26:33.036Z,19.80
2018-10-17T13:29:00.589Z,19.60
2018-10-17T13:31:28.167Z,19.40
2018-10-17T13:33:55.711Z,19.20
2018-10-17T13:36:23.246Z,19.10
2018-10-17T13:38:50.813Z,19.00
2018-10-17T13:41:18.484Z,18.90
2018-10-17T13:43:46.037Z,18.80
2018-10-17T13:46:13.663Z,19.20
2018-10-17T13:48:41.216Z,18.70
2018-10-17T13:51:08.871Z,18.50
2018-10-17T13:53:36.416Z,18.60
2018-10-17T13:56:04.020Z,18.60
2018-10-17T13:58:31.891Z,18.60
2018-10-17T14:00:59.569Z,18.60
2018-10-17T14:03:26.974Z,18.50
2018-10-17T14:05:54.570Z,18.40
2018-10-17T14:08:22.094Z,18.30
2018-10-17T14:10:49.719Z,18.00
2018-10-17T14:13:17.330Z,18.10
2018-10-17T14:15:44.858Z,17.90
2018-10-17T14:18:12.499Z,17.90
2018-10-17T14:20:39.990Z,17.90
2018-10-17T14:23:07.521Z,17.90
2018-10-17T14:25:35.103Z,18.00
2018-10-17T14:28:02.565Z,18.10
2018-10-17T14:30:30.144Z,18.20
2018-10-17T14:32:57.735Z,18.40
2018-10-17T14:35:25.321Z,18.50
2018-10-17T14:37:52.897Z,18.70
2018-10-17T14:40:20.458Z,19.00
2018-10-17T14:42:47.941Z,19.30
2018-10-17T14:45:15.665Z,19.50
2018-10-17T14:47:43.126Z,19.80
2018-10-17T14:50:10.648Z,20.00
2018-10-17T14:52:38.176Z,20.30
2018-10-17T14:55:06.764Z,20.40
2018-10-17T14:57:34.323Z,20.00
2018-10-17T15:00:01.886Z,21.10
2018-10-17T15:02:29.426Z,21.30
2018-10-17T15:04:57.015Z,21.50
2018-10-17T15:07:24.530Z,21.60
2018-10-17T15:09:52.045Z,22.30
2018-10-17T15:12:19.764Z,21.90
2018-10-17T15:14:47.358Z,22.00
2018-10-17T15:17:14.888Z,22.10
2018-10-17T15:19:42.468Z,22.30
2018-10-17T15:22:10.024Z,22.50
2018-10-17T15:24:37.566Z,22.70
2018-10-17T15:27:05.161Z,22.80
2018-10-17T15:29:32.577Z,23.60
2018-10-17T15:32:00.154Z,23.10
2018-10-17T15:34:27.654Z,22.20
2018-10-17T15:36:55.224Z,23.40
2018-10-17T15:39:22.685Z,23.60
2018-10-17T15:41:50.236Z,23.70
2018-10-17T15:44:17.824Z,23.80
2018-10-17T15:46:45.357Z,23.90
2018-10-17T15:49:12.948Z,24.10
2018-10-17T15:51:40.505Z,24.60
2018-10-17T15:54:08.095Z,24.00
2018-10-17T15:56:35.590Z,24.50
2018-10-17T15:59:03.130Z,24.60
2018-10-17T16:01:30.658Z,24.80
2018-10-17T16:03:58.222Z,24.00
2018-10-17T16:06:25.730Z,25.00
2018-10-17T16:08:53.436Z,25.10
2018-10-17T16:11:22.544Z,25.10
2018-10-17T16:13:50.120Z,25.30
2018-10-17T16:16:17.656Z,25.40
2018-10-17T16:18:45.214Z,26.50
2018-10-17T16:21:12.779Z,25.70
2018-10-17T16:23:40.384Z,25.80
2018-10-17T16:26:07.991Z,25.90
2018-10-17T16:28:35.596Z,26.00
2018-10-17T16:31:03.234Z,26.00
2018-10-17T16:33:30.768Z,26.20
2018-10-17T16:35:58.358Z,26.40
2018-10-17T16:38:25.909Z,26.50
2018-10-17T16:40:53.490Z,26.60
2018-10-17T16:43:21.132Z,26.70
2018-10-17T16:45:48.676Z,26.70
2018-10-17T16:48:16.543Z,26.80
2018-10-17T16:50:44.130Z,26.00
2018-10-17T16:53:11.468Z,27.30
2018-10-17T16:55:39.010Z,27.30
2018-10-17T16:58:06.608Z,27.40
2018-10-17T17:00:34.305Z,27.40
2018-10-17T17:03:01.953Z,28.00
2018-10-17T17:05:30.084Z,27.60
2018-10-17T17:07:59.202Z,27.80
2018-10-17T17:10:26.777Z,28.30
2018-10-17T17:12:54.322Z,28.00
2018-10-17T17:15:21.998Z,28.10
2018-10-17T17:17:49.657Z,28.30
2018-10-17T17:20:17.243Z,28.00
2018-10-17T17:22:44.967Z,28.40
2018-10-17T17:25:12.595Z,28.60
2018-10-17T17:27:40.367Z,28.50
2018-10-17T17:30:11.967Z,28.70
2018-10-17T17:32:39.622Z,28.90
2018-10-17T17:35:07.919Z,28.80
2018-10-17T17:37:35.514Z,28.30
2018-10-17T17:40:03.145Z,29.00
2018-10-17T17:42:32.960Z,28.80
2018-10-17T17:45:00.633Z,29.40
2018-10-17T17:47:28.259Z,29.40
2018-10-17T17:49:55.981Z,29.50
2018-10-17T17:52:23.490Z,30.10
2018-10-17T17:54:51.046Z,29.70
2018-10-17T17:57:18.624Z,30.30
2018-10-17T17:59:46.226Z,29.30
2018-10-17T18:02:13.802Z,30.00
2018-10-17T18:04:41.406Z,30.20
2018-10-17T18:07:09.004Z,30.30
2018-10-17T18:09:36.681Z,30.40
2018-10-17T18:12:04.571Z,30.50
2018-10-17T18:14:32.111Z,30.70
2018-10-17T18:16:59.703Z,30.70
2018-10-17T18:19:27.319Z,31.60
2018-10-17T18:21:55.692Z,30.00
2018-10-17T18:24:23.192Z,31.00
2018-10-17T18:26:50.734Z,31.10
2018-10-17T18:29:18.274Z,31.20
2018-10-17T18:31:45.838Z,31.40
2018-10-17T18:34:13.479Z,31.50
2018-10-17T18:36:40.956Z,31.60
2018-10-17T18:39:08.844Z,31.60
2018-10-17T18:41:37.831Z,31.80
2018-10-17T18:44:09.011Z,31.80
2018-10-17T18:46:37.399Z,31.80
2018-10-17T18:49:05.264Z,32.00
2018-10-17T18:51:34.130Z,32.00
2018-10-17T18:54:03.704Z,32.70
2018-10-17T18:56:31.360Z,32.40
2018-10-17T18:58:59.130Z,32.50
2018-10-17T19:01:26.841Z,32.40
2018-10-17T19:03:54.364Z,33.30
2018-10-17T19:06:21.958Z,32.60
2018-10-17T19:08:50.538Z,32.70
2018-10-17T19:11:19.828Z,32.50
2018-10-17T19:13:49.453Z,32.90
2018-10-17T19:16:19.197Z,31.60
2018-10-17T19:18:46.864Z,31.90
2018-10-17T19:21:14.549Z,33.20
2018-10-17T19:23:42.026Z,33.20
2018-10-17T19:26:09.876Z,33.30
2018-10-17T19:28:37.451Z,32.70
2018-10-17T19:31:05.209Z,33.10
2018-10-17T19:33:32.820Z,33.60
2018-10-17T19:36:00.535Z,34.00
2018-10-17T19:38:27.994Z,33.80
2018-10-17T19:40:55.564Z,33.90
2018-10-17T19:43:23.114Z,33.30
2018-10-17T19:45:50.690Z,34.10
2018-10-17T19:48:18.236Z,33.20
2018-10-17T19:50:46.774Z,34.80
2018-10-17T19:53:14.385Z,34.40
2018-10-17T19:55:41.961Z,34.30
2018-10-17T19:58:09.491Z,32.70
2018-10-17T20:00:37.059Z,34.90
2018-10-17T20:03:05.947Z,33.50
2018-10-17T20:05:33.473Z,34.80
2018-10-17T20:08:01.086Z,34.70
2018-10-17T20:10:29.101Z,34.90
2018-10-17T20:12:56.603Z,34.90
2018-10-17T20:15:24.157Z,35.00
2018-10-17T20:17:51.739Z,35.30
2018-10-17T20:20:19.277Z,35.40
2018-10-17T20:22:46.789Z,35.30
2018-10-17T20:25:14.540Z,35.40
2018-10-17T20:27:42.506Z,35.50
2018-10-17T20:30:10.617Z,35.60
2018-10-17T20:32:38.305Z,35.60
2018-10-17T20:35:06.320Z,35.70
2018-10-17T20:37:33.832Z,34.40
2018-10-17T20:40:01.303Z,34.20
2018-10-17T20:42:28.825Z,35.90
2018-10-17T20:44:56.391Z,36.00
2018-10-17T20:47:24.194Z,36.10
2018-10-17T20:49:51.744Z,36.20
2018-10-17T20:52:19.353Z,36.30
2018-10-17T20:54:47.003Z,36.30
2018-10-17T20:57:14.516Z,36.40
2018-10-17T20:59:42.090Z,36.60
2018-10-17T21:02:09.627Z,36.50
2018-10-17T21:04:37.219Z,36.60
2018-10-17T21:07:04.946Z,35.80
2018-10-17T21:09:32.475Z,36.80
2018-10-17T21:12:00.019Z,36.90
2018-10-17T21:14:27.646Z,36.80
2018-10-17T21:16:55.203Z,37.10
2018-10-17T21:19:24.118Z,37.00
2018-10-17T21:21:51.734Z,37.10
2018-10-17T21:24:19.261Z,37.20
2018-10-17T21:26:47.694Z,37.30
2018-10-17T21:29:15.874Z,37.20
2018-10-17T21:31:43.423Z,37.40
2018-10-17T21:34:10.980Z,37.40
2018-10-17T21:36:38.881Z,37.50
2018-10-17T21:39:08.504Z,37.60
2018-10-17T21:41:36.042Z,37.70
2018-10-17T21:44:03.812Z,37.70
2018-10-17T21:46:31.295Z,37.80
2018-10-17T21:49:00.308Z,37.80
2018-10-17T21:51:27.856Z,38.10
2018-10-17T21:53:55.517Z,38.10
2018-10-17T21:56:23.114Z,38.70
2018-10-17T21:58:50.664Z,38.10
2018-10-17T22:01:18.167Z,38.10
2018-10-17T22:03:45.687Z,38.30
2018-10-17T22:06:13.217Z,37.10
2018-10-17T22:08:43.367Z,38.30
2018-10-17T22:11:10.835Z,38.20
2018-10-17T22:13:38.335Z,38.40
2018-10-17T22:16:05.835Z,38.50
2018-10-17T22:18:33.352Z,38.60
2018-10-17T22:21:00.835Z,38.70
2018-10-17T22:23:28.347Z,38.80
2018-10-17T22:25:55.878Z,38.80
2018-10-17T22:28:23.397Z,38.80
2018-10-17T22:30:50.958Z,38.80
2018-10-17T22:33:18.497Z,38.90
2018-10-17T22:35:47.253Z,39.00
2018-10-17T22:38:14.884Z,39.10
2018-10-17T22:40:42.383Z,39.10
2018-10-17T22:43:11.455Z,39.00
2018-10-17T22:45:39.001Z,39.40
2018-10-17T22:48:06.502Z,39.20
2018-10-17T22:50:34.065Z,39.30
2018-10-17T22:53:01.709Z,40.30
2018-10-17T22:55:29.205Z,39.40
2018-10-17T22:57:57.949Z,39.40
2018-10-17T23:00:25.541Z,39.50
2018-10-17T23:02:53.093Z,39.50
2018-10-17T23:05:20.579Z,39.50
2018-10-17T23:07:48.153Z,39.50
2018-10-17T23:10:15.703Z,39.60
2018-10-17T23:12:43.281Z,39.70
2018-10-17T23:15:12.726Z,39.80
2018-10-17T23:17:41.956Z,39.80
2018-10-17T23:20:09.959Z,40.70
2018-10-17T23:22:38.010Z,40.50
2018-10-17T23:25:06.053Z,39.80
2018-10-17T23:27:33.598Z,40.30
2018-10-17T23:30:01.137Z,40.00
2018-10-17T23:32:28.700Z,40.30
2018-10-17T23:34:56.274Z,40.00
2018-10-17T23:37:24.957Z,40.00
2018-10-17T23:39:52.500Z,40.20
2018-10-17T23:42:20.116Z,40.90
2018-10-17T23:44:47.677Z,40.20
2018-10-17T23:47:15.721Z,40.20
2018-10-17T23:49:43.206Z,40.10
2018-10-17T23:52:12.361Z,40.20
2018-10-17T23:54:39.904Z,40.20
2018-10-17T23:57:07.403Z,40.40
2018-10-17T23:59:36.456Z,40.40
